Time;durP1;ratioP1;P1;durP2;ratioP2;P2;SDS_P1;SDS_P2;PMS_P1;PMS_P2;Temp;Humidity;BMP_temperature;BMP_pressure;BME280_temperature;BME280_humidity;BME280_pressure;Samples;Min_cycle;Max_cycle;Signal;HPM_P1;HPM_P2
2021/06/17 00:02:56;;;;;;;4.27;2.70;;;15.10;99.90;;;;;;6322178;28;20197;-71
2021/06/17 00:05:58;;;;;;;2.70;2.50;;;15.10;99.90;;;;;;6320740;28;20218;-71
2021/06/17 00:09:01;;;;;;;3.10;2.40;;;15.10;99.90;;;;;;6320819;28;20531;-71
2021/06/17 00:12:04;;;;;;;3.17;2.40;;;15.10;99.90;;;;;;6320395;28;20815;-71
2021/06/17 00:15:09;;;;;;;2.70;2.50;;;15.10;99.90;;;;;;6321471;28;20195;-71
2021/06/17 00:18:13;;;;;;;2.90;2.30;;;15.00;99.90;;;;;;6320631;28;20201;-71
2021/06/17 00:21:16;;;;;;;4.40;2.50;;;15.00;99.90;;;;;;6321571;28;20182;-71
2021/06/17 00:24:18;;;;;;;3.43;2.67;;;14.90;99.90;;;;;;6321785;28;20297;-71
2021/06/17 00:27:21;;;;;;;2.97;2.67;;;14.90;99.90;;;;;;6320575;28;20552;-71
2021/06/17 00:30:24;;;;;;;3.50;2.73;;;14.90;99.90;;;;;;6320190;28;20547;-71
2021/06/17 00:33:28;;;;;;;3.03;2.73;;;14.80;99.90;;;;;;6320261;28;20189;-71
2021/06/17 00:36:30;;;;;;;2.70;2.50;;;14.80;99.90;;;;;;6319655;28;20308;-71
2021/06/17 00:39:33;;;;;;;4.40;2.60;;;14.70;99.90;;;;;;6321478;28;20213;-70
2021/06/17 00:42:40;;;;;;;2.47;2.27;;;14.70;99.90;;;;;;6320134;28;20198;-70
2021/06/17 00:45:44;;;;;;;2.77;2.40;;;14.70;99.90;;;;;;6320697;28;20700;-70
2021/06/17 00:48:46;;;;;;;3.00;2.70;;;14.60;99.90;;;;;;6303189;28;20676;-70
2021/06/17 00:51:48;;;;;;;3.03;2.70;;;14.60;99.90;;;;;;6320937;28;20203;-70
2021/06/17 00:54:50;;;;;;;3.10;2.80;;;14.60;99.90;;;;;;6319750;28;20238;-70
2021/06/17 00:57:53;;;;;;;3.03;2.73;;;14.50;99.90;;;;;;6321620;28;20194;-70
2021/06/17 01:00:55;;;;;;;3.40;2.50;;;14.50;99.90;;;;;;6319038;28;20226;-70
2021/06/17 01:03:58;;;;;;;2.57;2.33;;;14.60;99.90;;;;;;6320898;28;20186;-70
2021/06/17 01:07:00;;;;;;;3.97;2.60;;;14.60;99.90;;;;;;6318833;28;20217;-70
2021/06/17 01:10:05;;;;;;;2.73;2.53;;;14.60;99.90;;;;;;6320544;28;20580;-70
2021/06/17 01:13:37;;;;;;;2.80;2.60;;;14.50;99.90;;;;;;6320280;28;20174;-70
2021/06/17 01:16:47;;;;;;;3.43;2.53;;;14.50;99.90;;;;;;6292776;28;20659;-70
2021/06/17 01:20:01;;;;;;;3.03;2.53;;;14.40;99.90;;;;;;6294398;28;20816;-70
2021/06/17 01:23:21;;;;;;;4.77;2.57;;;14.30;99.90;;;;;;6293880;28;20197;-70
2021/06/17 01:27:09;;;;;;;3.60;2.47;;;14.30;99.90;;;;;;6295079;28;20203;-70
2021/06/17 01:30:15;;;;;;;3.87;2.53;;;14.30;99.90;;;;;;6297225;28;20241;-70
2021/06/17 01:33:17;;;;;;;3.00;2.60;;;14.20;99.90;;;;;;6294122;28;20519;-70
2021/06/17 01:36:27;;;;;;;2.80;2.50;;;14.20;99.90;;;;;;6293426;28;20301;-70
2021/06/17 01:39:31;;;;;;;4.47;2.87;;;14.10;99.90;;;;;;6295496;28;20190;-70
2021/06/17 01:42:36;;;;;;;6.10;4.53;;;14.10;99.90;;;;;;6294906;28;20202;-70
2021/06/17 01:45:39;;;;;;;6.63;4.43;;;14.00;99.90;;;;;;6294881;28;20278;-70
2021/06/17 01:48:44;;;;;;;6.10;3.87;;;14.00;99.90;;;;;;6295040;28;20270;-70
2021/06/17 01:51:48;;;;;;;4.20;3.30;;;14.00;99.90;;;;;;6294695;28;20541;-71
2021/06/17 01:54:52;;;;;;;4.30;3.10;;;14.00;99.90;;;;;;6294786;28;20190;-70
2021/06/17 01:57:54;;;;;;;3.03;2.70;;;14.00;99.90;;;;;;6303773;28;20326;-70
2021/06/17 02:00:58;;;;;;;5.97;3.10;;;13.90;99.90;;;;;;6318408;28;20204;-70
2021/06/17 02:04:03;;;;;;;2.83;2.50;;;13.90;99.90;;;;;;6318669;28;20232;-70
2021/06/17 02:07:06;;;;;;;2.90;2.60;;;13.90;99.90;;;;;;6319278;28;20194;-70
2021/06/17 02:10:09;;;;;;;3.37;3.07;;;13.90;99.90;;;;;;6319721;28;20261;-70
2021/06/17 02:13:14;;;;;;;4.57;2.77;;;13.80;99.90;;;;;;6319118;28;20178;-70
2021/06/17 02:16:18;;;;;;;2.80;2.57;;;13.90;99.90;;;;;;6318383;28;20197;-70
2021/06/17 02:19:23;;;;;;;4.83;2.90;;;13.80;99.90;;;;;;6319545;28;20559;-70
2021/06/17 02:22:28;;;;;;;3.60;3.00;;;13.80;99.90;;;;;;6317898;28;20202;-70
2021/06/17 02:25:32;;;;;;;3.10;2.80;;;13.80;99.90;;;;;;6318411;28;20740;-70
2021/06/17 02:28:40;;;;;;;4.27;2.60;;;13.80;99.90;;;;;;6318907;28;20190;-70
2021/06/17 02:31:45;;;;;;;3.63;3.10;;;13.70;99.90;;;;;;6320589;28;20251;-70
2021/06/17 02:34:49;;;;;;;3.00;2.80;;;13.70;99.90;;;;;;6324635;28;20180;-70
2021/06/17 02:38:01;;;;;;;3.20;2.90;;;13.70;99.90;;;;;;6324183;28;20206;-71
2021/06/17 02:41:06;;;;;;;4.20;2.70;;;13.70;99.90;;;;;;6324192;28;20193;-71
2021/06/17 02:44:10;;;;;;;3.97;2.90;;;13.70;99.90;;;;;;6325745;28;20198;-71
2021/06/17 02:47:13;;;;;;;3.70;2.90;;;13.60;99.90;;;;;;6323844;28;20216;-71
2021/06/17 02:50:17;;;;;;;3.30;2.90;;;13.60;99.90;;;;;;6324751;28;20195;-71
2021/06/17 02:53:21;;;;;;;3.63;2.90;;;13.60;99.90;;;;;;6325113;28;20552;-71
2021/06/17 02:56:40;;;;;;;3.40;2.80;;;13.60;99.90;;;;;;6325204;28;20802;-71
2021/06/17 03:00:08;;;;;;;3.23;2.90;;;13.50;99.90;;;;;;6323834;28;20206;-71
2021/06/17 03:03:15;;;;;;;2.57;2.37;;;13.50;99.90;;;;;;6324682;28;20180;-71
2021/06/17 03:06:50;;;;;;;3.87;2.83;;;13.50;99.90;;;;;;6323269;28;20225;-71
2021/06/17 03:10:10;;;;;;;4.00;2.70;;;13.50;99.90;;;;;;6323990;28;20188;-71
2021/06/17 03:13:14;;;;;;;4.10;2.80;;;13.50;99.90;;;;;;6323798;28;20253;-71
2021/06/17 03:16:24;;;;;;;5.43;3.27;;;13.50;99.90;;;;;;6324091;28;20203;-71
2021/06/17 03:19:30;;;;;;;2.93;2.63;;;13.50;99.90;;;;;;6323970;28;20176;-71
2021/06/17 03:22:33;;;;;;;3.33;3.00;;;13.50;99.90;;;;;;6324222;28;20323;-71
2021/06/17 03:25:39;;;;;;;3.33;3.03;;;13.50;99.90;;;;;;6323593;28;20256;-71
2021/06/17 03:28:42;;;;;;;3.20;2.90;;;13.50;99.90;;;;;;6322970;28;20187;-71
2021/06/17 03:31:45;;;;;;;3.13;2.83;;;13.50;99.90;;;;;;6323788;28;20530;-71
2021/06/17 03:34:49;;;;;;;4.40;2.93;;;13.60;99.90;;;;;;6322993;28;20188;-72
2021/06/17 03:37:52;;;;;;;3.17;2.87;;;13.60;99.90;;;;;;6322208;28;20210;-71
2021/06/17 03:40:56;;;;;;;3.10;2.80;;;13.60;99.90;;;;;;6322896;28;20204;-71
2021/06/17 03:43:59;;;;;;;2.87;2.60;;;13.60;99.90;;;;;;6323110;28;20189;-71
2021/06/17 03:47:02;;;;;;;5.47;3.00;;;13.60;99.90;;;;;;6321386;28;20311;-72
2021/06/17 03:50:07;;;;;;;4.60;2.70;;;13.70;99.90;;;;;;6322130;28;20185;-71
2021/06/17 03:53:11;;;;;;;4.87;2.90;;;13.80;99.90;;;;;;6322647;28;20242;-71
2021/06/17 03:56:14;;;;;;;3.17;2.80;;;13.80;99.90;;;;;;6321722;28;20194;-71
2021/06/17 03:59:19;;;;;;;3.00;2.63;;;13.90;99.90;;;;;;6320934;28;20224;-71
2021/06/17 04:02:24;;;;;;;3.13;2.77;;;13.90;99.90;;;;;;6322419;28;20177;-71
2021/06/17 04:05:26;;;;;;;5.17;3.40;;;13.90;99.90;;;;;;6303478;28;20676;-71
2021/06/17 04:08:35;;;;;;;3.83;2.63;;;13.90;99.90;;;;;;6320641;28;20255;-71
2021/06/17 04:11:41;;;;;;;3.00;2.50;;;13.90;99.90;;;;;;6321602;28;20232;-71
2021/06/17 04:14:49;;;;;;;3.57;2.53;;;14.00;99.90;;;;;;6320167;28;20199;-71
2021/06/17 04:17:55;;;;;;;5.27;2.70;;;14.00;99.90;;;;;;6320460;28;20459;-71
2021/06/17 04:21:01;;;;;;;3.50;2.70;;;14.10;99.90;;;;;;6320371;28;20707;-71
2021/06/17 04:24:05;;;;;;;3.43;3.13;;;14.20;99.90;;;;;;6321431;28;20190;-71
2021/06/17 04:27:09;;;;;;;2.80;2.60;;;14.20;99.90;;;;;;6320989;28;20208;-71
2021/06/17 04:30:11;;;;;;;3.90;2.73;;;14.20;99.90;;;;;;6321449;28;20182;-71
2021/06/17 04:33:19;;;;;;;3.03;2.73;;;14.20;99.90;;;;;;6319827;28;20182;-71
2021/06/17 04:36:24;;;;;;;3.57;2.90;;;14.30;99.90;;;;;;6321067;28;20198;-71
2021/06/17 04:39:27;;;;;;;2.77;2.57;;;14.40;99.90;;;;;;6319818;28;20673;-71
2021/06/17 04:42:30;;;;;;;3.17;2.87;;;14.40;99.90;;;;;;6321589;28;20189;-71
2021/06/17 04:45:33;;;;;;;5.97;3.27;;;14.50;99.90;;;;;;6320805;28;20213;-71
2021/06/17 04:48:38;;;;;;;6.13;3.13;;;14.50;99.90;;;;;;6320821;28;20178;-71
2021/06/17 04:51:40;;;;;;;5.03;2.73;;;14.50;99.90;;;;;;6319955;28;20257;-71
2021/06/17 04:54:43;;;;;;;3.63;3.07;;;14.50;99.90;;;;;;6318626;28;20221;-71
2021/06/17 04:57:45;;;;;;;4.97;3.00;;;14.60;99.90;;;;;;6320505;28;20190;-71
2021/06/17 05:00:48;;;;;;;4.83;2.90;;;14.60;99.90;;;;;;6320714;28;20205;-71
2021/06/17 05:03:51;;;;;;;3.43;2.93;;;14.70;99.90;;;;;;6320422;28;20560;-71
2021/06/17 05:13:29;;;;;;;8.17;3.10;;;15.00;99.90;;;;;;6320347;28;20656;-71
2021/06/17 05:16:31;;;;;;;3.70;3.00;;;15.10;99.90;;;;;;6319126;28;20212;-71
2021/06/17 05:19:34;;;;;;;3.60;3.30;;;15.20;99.90;;;;;;6320017;28;20209;-71
2021/06/17 05:22:36;;;;;;;3.63;3.30;;;15.20;99.90;;;;;;6320232;28;20671;-71
2021/06/17 05:25:40;;;;;;;3.83;2.90;;;15.30;99.90;;;;;;6318336;28;20221;-71
2021/06/17 05:28:42;;;;;;;3.27;2.97;;;15.30;99.90;;;;;;6319877;28;20558;-71
2021/06/17 05:31:45;;;;;;;3.67;3.03;;;15.40;99.90;;;;;;6318951;28;20272;-71
2021/06/17 05:34:47;;;;;;;3.13;2.83;;;15.40;99.90;;;;;;6319431;28;20266;-71
2021/06/17 05:37:50;;;;;;;4.30;2.80;;;15.50;99.90;;;;;;6318841;28;20232;-71
2021/06/17 05:40:52;;;;;;;3.40;2.70;;;15.50;99.90;;;;;;6318157;28;20202;-72
2021/06/17 05:43:54;;;;;;;4.23;3.10;;;15.60;99.90;;;;;;6318492;28;20415;-71
2021/06/17 05:46:57;;;;;;;3.87;3.43;;;15.70;99.90;;;;;;6319096;28;20608;-71
2021/06/17 05:50:00;;;;;;;4.30;3.17;;;15.70;99.90;;;;;;6318246;28;20198;-71
2021/06/17 05:53:02;;;;;;;3.60;2.93;;;15.80;99.90;;;;;;6318315;28;20197;-71
2021/06/17 05:56:05;;;;;;;4.70;3.37;;;15.90;99.90;;;;;;6318061;28;20197;-71
2021/06/17 05:59:07;;;;;;;2.93;2.63;;;16.00;99.90;;;;;;6318814;28;20198;-71
2021/06/17 06:02:11;;;;;;;5.50;3.03;;;16.10;99.90;;;;;;6317936;28;20699;-71
2021/06/17 06:05:13;;;;;;;3.43;3.00;;;16.20;99.90;;;;;;6317992;28;20235;-71
2021/06/17 06:08:16;;;;;;;2.60;2.40;;;16.40;99.90;;;;;;6324865;28;20209;-71
2021/06/17 06:11:19;;;;;;;3.43;3.03;;;16.50;99.90;;;;;;6324203;28;20217;-71
2021/06/17 06:14:21;;;;;;;4.50;3.47;;;16.60;99.90;;;;;;6324335;28;20190;-71
2021/06/17 06:17:24;;;;;;;3.30;3.00;;;16.70;99.90;;;;;;6324138;28;20190;-71
2021/06/17 06:20:26;;;;;;;3.03;2.83;;;16.90;99.90;;;;;;6323068;28;20186;-71
2021/06/17 06:23:29;;;;;;;3.17;2.97;;;17.10;99.90;;;;;;6324465;28;20190;-71
2021/06/17 06:26:33;;;;;;;3.30;3.00;;;17.40;99.90;;;;;;6322398;28;20214;-71
2021/06/17 06:29:36;;;;;;;3.60;3.30;;;17.60;99.90;;;;;;6323055;28;20266;-71
2021/06/17 06:32:38;;;;;;;3.87;3.57;;;17.80;99.90;;;;;;6322662;28;20186;-71
2021/06/17 06:35:42;;;;;;;4.13;3.50;;;18.00;99.90;;;;;;6323004;28;20182;-71
2021/06/17 06:38:45;;;;;;;4.83;3.10;;;18.20;99.90;;;;;;6324228;28;20677;-71
2021/06/17 06:41:47;;;;;;;4.83;2.90;;;18.50;99.90;;;;;;6324800;28;20672;-71
2021/06/17 06:44:49;;;;;;;5.27;3.10;;;18.80;99.90;;;;;;6323898;28;20197;-71
2021/06/17 06:47:53;;;;;;;4.20;2.83;;;19.00;99.90;;;;;;6322268;28;20202;-71
2021/06/17 06:50:55;;;;;;;4.07;2.80;;;19.30;99.90;;;;;;6323988;28;20235;-71
2021/06/17 06:53:57;;;;;;;4.53;3.20;;;19.70;99.90;;;;;;6323834;28;20209;-71
2021/06/17 06:57:00;;;;;;;3.90;2.83;;;20.10;99.90;;;;;;6323451;28;20182;-71
2021/06/17 07:00:05;;;;;;;2.97;2.67;;;20.40;99.90;;;;;;6322087;28;20670;-71
2021/06/17 07:03:07;;;;;;;5.80;2.87;;;20.70;99.90;;;;;;6323349;28;20656;-71
2021/06/17 07:06:09;;;;;;;5.83;2.87;;;21.10;99.90;;;;;;6323962;28;20248;-71
2021/06/17 07:09:11;;;;;;;2.47;2.27;;;21.30;99.90;;;;;;6322122;28;20756;-71
2021/06/17 07:12:14;;;;;;;6.00;2.77;;;21.70;99.90;;;;;;6321811;28;20218;-71
2021/06/17 07:15:17;;;;;;;3.30;2.70;;;22.00;99.90;;;;;;6323115;28;20315;-71
2021/06/17 07:18:20;;;;;;;4.60;2.60;;;22.30;99.90;;;;;;6320972;28;20211;-71
2021/06/17 07:21:22;;;;;;;3.67;2.40;;;22.60;99.00;;;;;;6323151;28;20272;-71
2021/06/17 07:24:24;;;;;;;3.30;2.60;;;23.00;95.90;;;;;;6304514;28;20224;-71
2021/06/17 07:27:26;;;;;;;2.27;2.07;;;23.40;96.50;;;;;;6322977;28;20284;-71
2021/06/17 07:30:29;;;;;;;2.53;2.33;;;23.70;96.50;;;;;;6321573;28;20284;-72
2021/06/17 07:33:31;;;;;;;2.40;2.20;;;23.90;95.70;;;;;;6322000;28;20257;-72
2021/06/17 07:36:33;;;;;;;2.97;2.40;;;24.20;95.30;;;;;;6322573;28;20209;-72
2021/06/17 07:39:36;;;;;;;2.50;1.90;;;24.60;94.60;;;;;;6321068;28;20198;-72
2021/06/17 07:42:38;;;;;;;3.63;2.30;;;24.80;93.60;;;;;;6321313;28;20198;-72
2021/06/17 07:45:40;;;;;;;6.50;2.77;;;25.20;89.80;;;;;;6322424;28;20186;-72
2021/06/17 07:48:45;;;;;;;3.97;2.40;;;25.40;86.40;;;;;;6322641;28;20523;-72
2021/06/17 07:51:47;;;;;;;4.33;2.20;;;25.70;85.50;;;;;;6323446;28;20174;-72
2021/06/17 07:54:49;;;;;;;4.70;2.40;;;26.00;86.40;;;;;;6322091;28;20181;-72
2021/06/17 07:57:51;;;;;;;3.47;2.40;;;26.50;87.00;;;;;;6322205;28;20190;-72
2021/06/17 08:00:53;;;;;;;5.30;2.50;;;26.80;86.00;;;;;;6320429;28;20194;-72
2021/06/17 08:04:06;;;;;;;3.83;2.20;;;27.10;82.50;;;;;;6322082;28;20174;-72
2021/06/17 08:07:08;;;;;;;8.23;2.72;;;27.40;80.70;;;;;;6320496;28;20225;-72
2021/06/17 08:10:11;;;;;;;3.17;2.08;;;27.60;74.80;;;;;;6321364;28;20178;-72
2021/06/17 08:13:13;;;;;;;3.35;2.33;;;27.60;76.00;;;;;;6322009;28;20181;-72
2021/06/17 08:16:16;;;;;;;4.38;2.33;;;27.70;70.10;;;;;;6321070;28;20675;-72
2021/06/17 08:19:25;;;;;;;4.85;2.22;;;27.80;72.10;;;;;;6322190;28;20273;-72
2021/06/17 08:22:28;;;;;;;2.30;2.10;;;28.10;70.90;;;;;;6321248;28;20174;-72
2021/06/17 08:25:32;;;;;;;2.55;2.05;;;28.30;66.10;;;;;;6321783;28;20178;-72
2021/06/17 08:28:34;;;;;;;2.40;2.17;;;28.70;64.50;;;;;;6319288;28;20309;-72
2021/06/17 08:31:38;;;;;;;5.45;2.08;;;28.80;59.90;;;;;;6319995;28;20205;-72
2021/06/17 08:34:41;;;;;;;6.18;2.92;;;28.80;58.10;;;;;;6321257;28;20182;-72
2021/06/17 08:37:44;;;;;;;2.40;2.20;;;28.80;58.60;;;;;;6320850;28;20216;-72
2021/06/17 08:40:46;;;;;;;3.63;2.65;;;29.20;59.00;;;;;;6319826;28;20194;-72
2021/06/17 08:43:51;;;;;;;4.82;2.40;;;29.50;57.90;;;;;;6319783;28;20198;-72
2021/06/17 08:46:54;;;;;;;3.55;2.55;;;29.50;59.20;;;;;;6320504;28;20280;-72
2021/06/17 08:49:58;;;;;;;2.97;2.20;;;29.60;60.40;;;;;;6319978;28;20197;-72
2021/06/17 08:53:01;;;;;;;2.85;2.42;;;29.80;58.20;;;;;;6320708;28;20635;-72
2021/06/17 08:56:04;;;;;;;4.03;2.47;;;30.10;56.20;;;;;;6319754;28;20186;-72
2021/06/17 08:59:07;;;;;;;5.07;2.42;;;30.10;56.00;;;;;;6321245;28;20217;-72
2021/06/17 09:02:11;;;;;;;3.55;2.75;;;30.10;53.60;;;;;;6320805;28;20194;-72
2021/06/17 09:05:15;;;;;;;4.00;2.28;;;30.10;53.20;;;;;;6321017;28;20193;-72
2021/06/17 09:08:30;;;;;;;2.67;2.15;;;30.10;54.70;;;;;;6320616;28;20281;-72
2021/06/17 09:11:33;;;;;;;2.50;2.28;;;30.20;52.90;;;;;;6320694;28;20379;-72
2021/06/17 09:14:37;;;;;;;2.88;2.20;;;30.30;53.80;;;;;;6319912;28;20633;-72
2021/06/17 09:17:40;;;;;;;2.38;2.13;;;30.30;54.20;;;;;;6320726;28;20269;-72
2021/06/17 09:20:44;;;;;;;5.10;2.22;;;30.30;53.90;;;;;;6319849;28;20548;-72
2021/06/17 09:23:49;;;;;;;2.67;2.13;;;30.60;51.90;;;;;;6320636;28;20635;-72
2021/06/17 09:26:52;;;;;;;3.17;2.17;;;30.80;51.00;;;;;;6320599;28;20568;-72
2021/06/17 09:30:12;;;;;;;2.72;1.90;;;31.00;51.80;;;;;;6319443;28;20228;-72
2021/06/17 09:33:15;;;;;;;5.97;2.15;;;31.30;51.40;;;;;;6320817;28;20257;-72
2021/06/17 09:36:29;;;;;;;2.75;2.13;;;31.40;49.50;;;;;;6320286;28;20206;-72
2021/06/17 09:39:33;;;;;;;3.63;2.13;;;31.30;50.20;;;;;;6319467;28;20174;-72
2021/06/17 09:42:35;;;;;;;5.05;1.90;;;31.50;49.90;;;;;;6319200;28;20178;-72
2021/06/17 09:45:37;;;;;;;2.30;2.10;;;31.80;50.20;;;;;;6320447;28;20178;-72
2021/06/17 09:48:45;;;;;;;5.25;2.40;;;32.20;49.60;;;;;;6319491;28;20213;-72
2021/06/17 09:51:52;;;;;;;4.10;2.22;;;32.10;47.50;;;;;;6320783;28;20167;-72
2021/06/17 09:54:54;;;;;;;4.88;2.10;;;32.00;48.00;;;;;;6319778;28;20709;-72
2021/06/17 09:57:56;;;;;;;3.58;2.15;;;32.00;47.50;;;;;;6319013;28;20189;-73
2021/06/17 10:00:59;;;;;;;4.22;2.28;;;31.80;46.70;;;;;;6319396;28;20571;-72
2021/06/17 10:04:13;;;;;;;5.43;2.35;;;31.40;48.90;;;;;;6319653;28;20224;-72
2021/06/17 10:07:19;;;;;;;3.22;2.10;;;31.40;47.40;;;;;;6320064;28;20202;-72
2021/06/17 10:10:24;;;;;;;3.10;2.03;;;31.60;46.90;;;;;;6318810;28;20304;-72
2021/06/17 10:13:26;;;;;;;3.35;1.83;;;31.90;47.00;;;;;;6319655;28;20174;-72
2021/06/17 10:16:29;;;;;;;2.92;2.28;;;32.40;48.70;;;;;;6321237;28;20355;-72
2021/06/17 10:19:32;;;;;;;2.97;2.35;;;32.80;46.00;;;;;;6321381;28;20193;-72
2021/06/17 10:22:37;;;;;;;4.28;2.45;;;32.90;44.30;;;;;;6321216;28;20186;-72
2021/06/17 10:25:39;;;;;;;2.72;2.03;;;32.80;44.40;;;;;;6320136;28;20740;-72
2021/06/17 10:28:47;;;;;;;2.33;1.95;;;32.80;43.90;;;;;;6319825;28;20221;-72
2021/06/17 10:31:51;;;;;;;3.72;1.90;;;32.90;44.80;;;;;;6319676;28;20179;-72
2021/06/17 10:34:54;;;;;;;3.25;1.88;;;32.90;45.80;;;;;;6318604;28;20190;-72
2021/06/17 10:38:02;;;;;;;4.20;2.38;;;33.30;45.30;;;;;;6319884;28;20210;-72
2021/06/17 10:41:05;;;;;;;3.30;2.20;;;33.60;44.00;;;;;;6320080;28;20179;-72
2021/06/17 10:44:46;;;;;;;4.13;2.15;;;33.40;43.70;;;;;;6319112;28;20258;-72
2021/06/17 10:47:50;;;;;;;4.45;2.08;;;33.80;43.40;;;;;;6319211;28;20218;-72
2021/06/17 10:51:01;;;;;;;4.22;2.00;;;34.20;42.90;;;;;;6319061;28;20187;-72
2021/06/17 10:54:04;;;;;;;5.00;1.98;;;34.00;42.10;;;;;;6324724;28;20182;-72
2021/06/17 10:57:06;;;;;;;2.60;1.98;;;33.90;41.70;;;;;;6324568;28;20194;-72
2021/06/17 11:03:37;;;;;;;2.13;1.83;;;33.80;42.00;;;;;;6324070;28;20197;-72
2021/06/17 11:06:52;;;;;;;3.72;2.08;;;33.80;42.30;;;;;;6324108;28;20194;-72
2021/06/17 11:09:59;;;;;;;2.42;2.10;;;34.00;42.50;;;;;;6324428;28;20167;-72
2021/06/17 11:13:02;;;;;;;2.22;2.03;;;34.20;42.20;;;;;;6324716;28;20326;-72
2021/06/17 11:16:14;;;;;;;4.85;2.08;;;34.50;41.40;;;;;;6324687;28;20182;-72
2021/06/17 11:19:16;;;;;;;4.10;1.92;;;34.90;41.60;;;;;;6323730;28;20175;-72
2021/06/17 11:22:34;;;;;;;4.80;1.95;;;35.40;41.60;;;;;;6322390;28;20608;-72
2021/06/17 11:25:38;;;;;;;2.40;2.20;;;36.00;39.00;;;;;;6324443;28;20253;-72
2021/06/17 11:28:50;;;;;;;4.35;2.20;;;35.90;40.10;;;;;;6324246;28;20229;-72
2021/06/17 11:31:54;;;;;;;3.22;1.58;;;35.70;39.20;;;;;;6323768;28;20626;-72
2021/06/17 11:34:57;;;;;;;2.40;2.00;;;35.40;38.90;;;;;;6324112;28;20398;-72
2021/06/17 11:38:00;;;;;;;3.25;1.83;;;35.20;38.80;;;;;;6324437;28;20648;-72
2021/06/17 11:41:20;;;;;;;5.00;1.90;;;35.30;38.00;;;;;;6323928;28;20207;-72
2021/06/17 11:44:25;;;;;;;4.50;1.90;;;35.00;38.70;;;;;;6324046;28;20288;-72
2021/06/17 11:47:27;;;;;;;4.30;2.05;;;34.70;38.50;;;;;;6322773;28;20222;-72
2021/06/17 11:50:30;;;;;;;2.63;1.67;;;34.70;38.10;;;;;;6324266;28;20197;-72
2021/06/17 11:53:32;;;;;;;3.88;2.08;;;34.50;39.10;;;;;;6323279;28;20212;-72
2021/06/17 11:56:35;;;;;;;2.63;1.98;;;34.50;38.70;;;;;;6323250;28;20205;-72
2021/06/17 11:59:40;;;;;;;3.15;2.08;;;34.30;39.00;;;;;;6323306;28;20285;-72
2021/06/17 12:02:44;;;;;;;5.13;2.00;;;34.00;38.60;;;;;;6323790;28;20588;-72
2021/06/17 12:05:47;;;;;;;3.50;1.95;;;33.40;38.50;;;;;;6322894;28;20258;-72
2021/06/17 12:09:09;;;;;;;1.90;1.70;;;33.40;39.60;;;;;;6322022;28;20214;-72
2021/06/17 12:12:22;;;;;;;6.00;2.03;;;34.00;40.00;;;;;;6323662;28;20222;-72
2021/06/17 12:15:40;;;;;;;2.63;2.17;;;34.70;37.90;;;;;;6324153;28;20204;-72
2021/06/17 12:18:43;;;;;;;3.30;2.03;;;34.80;38.00;;;;;;6324275;28;20185;-72
2021/06/17 12:21:45;;;;;;;6.80;1.70;;;34.70;37.80;;;;;;6323237;28;20239;-72
2021/06/17 12:24:48;;;;;;;3.47;2.00;;;34.40;37.50;;;;;;6304831;28;20526;-72
2021/06/17 12:27:51;;;;;;;3.53;1.92;;;34.40;38.20;;;;;;6321618;28;20202;-72
2021/06/17 12:30:55;;;;;;;2.50;2.00;;;34.80;37.80;;;;;;6323378;28;20272;-72
2021/06/17 12:34:13;;;;;;;1.70;1.60;;;35.30;37.80;;;;;;6323590;28;20263;-72
2021/06/17 12:37:15;;;;;;;3.30;1.70;;;35.50;36.20;;;;;;6322018;28;20213;-72
2021/06/17 12:40:32;;;;;;;2.72;1.85;;;35.20;36.70;;;;;;6323284;28;20192;-72
2021/06/17 12:43:44;;;;;;;2.05;1.85;;;35.50;36.60;;;;;;6322101;28;20658;-72
2021/06/17 12:46:55;;;;;;;3.38;1.90;;;35.90;36.00;;;;;;6322270;28;20174;-72
2021/06/17 12:53:15;;;;;;;2.72;1.60;;;36.20;34.70;;;;;;6323606;28;20197;-72
2021/06/17 12:56:18;;;;;;;3.53;1.83;;;36.20;35.40;;;;;;6323195;28;20182;-72
2021/06/17 12:59:46;;;;;;;2.92;1.25;;;36.30;35.80;;;;;;6321143;28;20205;-72
2021/06/17 13:02:50;;;;;;;2.17;1.70;;;36.70;35.50;;;;;;6322346;28;20595;-72
2021/06/17 13:05:55;;;;;;;2.03;1.50;;;37.00;34.70;;;;;;6322409;28;20186;-72
2021/06/17 13:08:57;;;;;;;1.67;1.58;;;36.80;34.80;;;;;;6322304;28;20222;-72
2021/06/17 13:12:16;;;;;;;2.22;1.58;;;37.00;35.80;;;;;;6323183;28;20271;-72
2021/06/17 13:15:24;;;;;;;2.22;1.98;;;36.90;34.20;;;;;;6321741;28;20178;-72
2021/06/17 13:18:31;;;;;;;2.17;1.50;;;35.90;34.70;;;;;;6321471;28;20171;-72
2021/06/17 13:21:33;;;;;;;2.65;1.67;;;36.00;35.00;;;;;;6321497;28;20224;-72
2021/06/17 13:24:41;;;;;;;1.98;1.60;;;36.40;35.10;;;;;;6323603;28;20195;-72
2021/06/17 13:27:43;;;;;;;2.75;1.50;;;36.30;34.10;;;;;;6320955;28;20304;-72
2021/06/17 13:30:45;;;;;;;1.77;1.40;;;36.20;34.50;;;;;;6321836;28;20316;-72
2021/06/17 13:33:50;;;;;;;1.67;1.52;;;35.70;34.20;;;;;;6321789;28;20182;-72
2021/06/17 13:36:52;;;;;;;2.35;1.50;;;35.90;34.70;;;;;;6322347;28;20269;-72
2021/06/17 13:39:54;;;;;;;3.78;1.48;;;36.30;34.50;;;;;;6322157;28;20204;-72
2021/06/17 13:42:59;;;;;;;2.95;1.38;;;37.00;34.10;;;;;;6320508;28;20207;-72
2021/06/17 13:46:02;;;;;;;2.90;1.60;;;37.70;33.30;;;;;;6320826;28;20303;-72
2021/06/17 13:49:04;;;;;;;2.33;1.30;;;37.90;33.40;;;;;;6319855;28;20619;-72
2021/06/17 13:52:07;;;;;;;2.75;1.40;;;38.30;32.40;;;;;;6320360;28;20190;-72
2021/06/17 13:55:14;;;;;;;3.88;1.30;;;38.70;32.00;;;;;;6322466;28;20186;-72
2021/06/17 13:58:18;;;;;;;2.60;1.20;;;39.20;31.70;;;;;;6320994;28;20226;-72
2021/06/17 14:01:20;;;;;;;2.03;1.42;;;39.70;31.40;;;;;;6324061;28;20190;-72
2021/06/17 14:04:23;;;;;;;2.67;1.70;;;39.60;30.80;;;;;;6321067;28;20217;-72
2021/06/17 14:07:25;;;;;;;2.55;1.80;;;39.80;30.80;;;;;;6321572;28;20217;-72
2021/06/17 14:10:28;;;;;;;5.50;1.42;;;40.20;31.20;;;;;;6319689;28;20217;-72
2021/06/17 14:13:30;;;;;;;1.95;1.55;;;40.70;31.00;;;;;;6320091;28;20186;-72
2021/06/17 14:16:33;;;;;;;1.83;1.50;;;40.70;31.00;;;;;;6321801;28;20649;-72
2021/06/17 14:19:35;;;;;;;1.55;1.35;;;40.10;31.00;;;;;;6321585;28;20189;-72
2021/06/17 14:22:39;;;;;;;4.95;1.85;;;39.90;31.00;;;;;;6319560;28;20190;-72
2021/06/17 14:25:42;;;;;;;2.25;1.88;;;40.20;30.80;;;;;;6320790;28;20220;-73
2021/06/17 14:28:44;;;;;;;2.50;1.60;;;40.40;31.00;;;;;;6326052;28;20209;-73
2021/06/17 14:31:46;;;;;;;2.47;1.80;;;40.70;30.70;;;;;;6326714;28;20573;-72
2021/06/17 14:34:49;;;;;;;3.67;1.45;;;41.20;30.30;;;;;;6324854;28;20559;-72
2021/06/17 14:37:52;;;;;;;2.05;1.52;;;41.50;31.20;;;;;;6326045;28;20222;-72
2021/06/17 14:40:54;;;;;;;1.65;1.50;;;41.40;30.10;;;;;;6326721;28;20182;-72
2021/06/17 14:44:01;;;;;;;3.45;1.92;;;41.70;30.30;;;;;;6326352;28;20534;-72
2021/06/17 14:47:04;;;;;;;3.63;1.67;;;42.00;30.20;;;;;;6324931;28;20264;-72
2021/06/17 14:50:07;;;;;;;3.28;1.83;;;41.50;29.80;;;;;;6327679;28;20206;-72
2021/06/17 14:53:10;;;;;;;1.52;1.42;;;41.20;30.40;;;;;;6327426;28;20205;-72
2021/06/17 14:56:13;;;;;;;2.35;1.50;;;41.50;30.50;;;;;;6326260;28;20197;-72
2021/06/17 14:59:15;;;;;;;1.50;1.40;;;41.90;29.90;;;;;;6327049;28;20209;-72
2021/06/17 15:02:18;;;;;;;2.63;1.67;;;41.80;29.80;;;;;;6324652;28;20289;-72
2021/06/17 15:05:21;;;;;;;2.45;1.80;;;41.40;29.80;;;;;;6325778;28;20205;-72
2021/06/17 15:08:23;;;;;;;3.38;1.55;;;41.20;30.00;;;;;;6326529;28;20213;-72
2021/06/17 15:11:25;;;;;;;5.78;1.92;;;41.30;30.60;;;;;;6323748;28;20313;-72
2021/06/17 15:14:28;;;;;;;1.92;1.63;;;41.70;31.20;;;;;;6326677;28;20247;-72
2021/06/17 15:17:30;;;;;;;3.22;1.65;;;42.30;30.30;;;;;;6324229;28;20556;-72
2021/06/17 15:20:34;;;;;;;4.35;1.88;;;42.70;31.20;;;;;;6326426;28;20182;-72
2021/06/17 15:23:36;;;;;;;1.63;1.52;;;43.10;29.70;;;;;;6325886;28;20213;-72
2021/06/17 15:26:41;;;;;;;2.22;1.88;;;43.10;28.90;;;;;;6325280;28;20267;-72
2021/06/17 15:30:01;;;;;;;1.85;1.70;;;43.10;29.70;;;;;;6325289;28;20285;-72
2021/06/17 15:34:28;;;;;;;2.65;1.58;;;43.20;29.50;;;;;;6325813;28;20689;-72
2021/06/17 15:38:05;;;;;;;2.08;1.58;;;43.00;29.00;;;;;;6323557;28;20227;-72
2021/06/17 15:41:10;;;;;;;2.95;1.40;;;43.00;30.20;;;;;;6317138;28;20194;-72
2021/06/17 15:44:16;;;;;;;3.55;1.70;;;43.20;29.60;;;;;;6322899;28;20720;-72
2021/06/17 15:47:21;;;;;;;2.65;1.70;;;43.00;29.60;;;;;;6309670;28;20257;-72
2021/06/17 15:50:23;;;;;;;1.95;1.65;;;43.00;30.10;;;;;;6296909;28;20253;-72
2021/06/17 15:53:26;;;;;;;2.22;1.60;;;42.90;30.00;;;;;;6298842;28;20623;-72
2021/06/17 15:56:29;;;;;;;3.67;1.90;;;43.00;31.00;;;;;;6299285;28;20682;-72
2021/06/17 15:59:32;;;;;;;2.10;1.70;;;43.10;30.00;;;;;;6309559;28;20195;-72
2021/06/17 16:02:41;;;;;;;1.70;1.60;;;42.80;29.70;;;;;;6299748;28;20202;-72
2021/06/17 16:05:45;;;;;;;2.30;1.55;;;42.70;29.20;;;;;;6299528;28;20176;-72
2021/06/17 16:08:49;;;;;;;1.63;1.40;;;42.70;30.00;;;;;;6298176;28;20355;-72
2021/06/17 16:11:51;;;;;;;4.70;1.92;;;42.70;30.40;;;;;;6298473;28;20254;-72
2021/06/17 16:14:53;;;;;;;1.63;1.52;;;42.80;30.90;;;;;;6309697;28;20190;-72
2021/06/17 16:17:56;;;;;;;3.00;1.88;;;42.70;31.10;;;;;;6321122;28;20194;-72
2021/06/17 16:20:58;;;;;;;2.22;1.70;;;42.80;31.50;;;;;;6323183;28;20274;-72